LFCR/RDZ METAR and TAF weather

Enter ICAO airport designator
Station Type Date Time Source
LFCR METAR 2021/09/20 06:00 UTC NOAA

LFCR 200600Z AUTO 31003KT 9000 -RA BKN005/// BKN009/// BKN014/// ///TCU 12/12 Q1020 TEMPO 4000 -SHRA BKN012 SCT020CB


Station Type Date Time Source
LFCR Decoded METAR 2021/09/20 06:00 UTC NOAA

Rodez, France (LFCR) 44-24N 002-29E 580M
Sep 20, 2021 - 02:00 AM EDT / 2021.09.20 0600 UTC
Wind: from the NW (310 degrees) at 3 MPH (3 KT):0
Visibility: 5 mile(s):0
Sky conditions: mostly cloudy
Weather: light rain; Cumulonimbus clouds, towering cumulus clouds observed
Temperature: 53 F (12 C)
Dew Point: 53 F (12 C)
Relative Humidity: 100%
Pressure (altimeter): 30.12 in. Hg (1020 hPa)
ob: LFCR 200600Z AUTO 31003KT 9000 -RA BKN005/// BKN009/// BKN014/// ///TCU 12/12 Q1020 TEMPO 4000 -SHRA BKN012 SCT020CB
cycle: 6

Station Type Date Time Source
LFCR TAF 2021/09/20 06:45 UTC NOAA

TAF LFCR 200500Z 2006/2106 30007KT 9999 BKN006
TEMPO 2006/2010 1500 -DZ OVC002 PROB40
TEMPO 2006/2009 4000 -SHRA BKN012 SCT020CB
BECMG 2010/2012 SCT006 BKN013
TEMPO 2012/2018 -SHRA SCT013TCU BKN016
BECMG 2020/2022 3000 BR OVC003
TEMPO 2022/2106 1200 -DZ OVC001

Example: see airport list